Time;durP1;ratioP1;P1;durP2;ratioP2;P2;SDS_P1;SDS_P2;PMS_P1;PMS_P2;Temp;Humidity;BMP_temperature;BMP_pressure;BME280_temperature;BME280_humidity;BME280_pressure;Samples;Min_cycle;Max_cycle;Signal;HPM_P1;HPM_P2
2023/03/09 00:01:53;;;;;;;1.47;1.37;;;;;;;-141.59;100.00;61776.25;5078610;28;20197;-82
2023/03/09 00:04:21;;;;;;;1.27;1.17;;;;;;;-141.59;100.00;61776.25;5086032;28;20220;-82
2023/03/09 00:06:49;;;;;;;1.40;1.30;;;;;;;-141.59;100.00;61776.25;5090788;28;20305;-83
2023/03/09 00:09:17;;;;;;;1.90;1.57;;;;;;;-141.59;100.00;61776.25;5084981;28;20664;-82
2023/03/09 00:11:46;;;;;;;1.33;1.20;;;;;;;-141.59;100.00;61776.25;5087146;28;20192;-82
2023/03/09 00:14:14;;;;;;;1.30;1.20;;;;;;;-141.59;100.00;61776.25;5080155;28;20224;-82
2023/03/09 00:16:42;;;;;;;1.40;1.30;;;;;;;-141.59;100.00;61776.25;5086355;28;20215;-82
2023/03/09 00:19:11;;;;;;;1.30;1.20;;;;;;;-141.59;100.00;61776.25;5082101;28;20207;-82
2023/03/09 00:21:39;;;;;;;1.30;1.20;;;;;;;-141.59;100.00;61776.25;5073417;28;20204;-83
2023/03/09 00:24:09;;;;;;;1.40;1.30;;;;;;;-141.59;100.00;61776.25;5081294;28;20221;-84
2023/03/09 00:26:38;;;;;;;1.30;1.20;;;;;;;-141.59;100.00;61776.25;5087445;28;20276;-83
2023/03/09 00:29:07;;;;;;;1.20;1.10;;;;;;;-141.59;100.00;61776.25;5086337;28;20215;-82
2023/03/09 00:31:34;;;;;;;1.20;1.10;;;;;;;-141.59;100.00;61776.25;5076675;28;20273;-83
2023/03/09 00:34:03;;;;;;;1.40;1.20;;;;;;;-141.59;100.00;61776.25;5083500;28;20207;-81
2023/03/09 00:36:31;;;;;;;1.10;1.00;;;;;;;-141.59;100.00;61776.25;5081017;28;20204;-82
2023/03/09 00:38:59;;;;;;;1.30;1.20;;;;;;;-141.59;100.00;61776.25;5103167;28;20192;-81
2023/03/09 00:41:30;;;;;;;1.20;1.10;;;;;;;-141.59;100.00;61776.25;5073776;28;20238;-81
2023/03/09 00:43:57;;;;;;;1.10;1.00;;;;;;;-141.59;100.00;61776.25;5084546;28;20284;-82
2023/03/09 00:46:25;;;;;;;1.13;1.00;;;;;;;-141.59;100.00;61776.25;5101729;28;20196;-83
2023/03/09 00:48:52;;;;;;;1.07;1.00;;;;;;;-141.59;100.00;61776.25;5100542;28;20231;-82
2023/03/09 00:51:19;;;;;;;1.37;1.07;;;;;;;-141.59;100.00;61776.25;5081224;28;20207;-82
2023/03/09 00:53:48;;;;;;;0.90;0.90;;;;;;;-141.59;100.00;61776.25;5082352;28;20283;-83
2023/03/09 00:56:17;;;;;;;0.80;0.80;;;;;;;-141.59;100.00;61776.25;5087132;28;20228;-82
2023/03/09 00:58:45;;;;;;;1.20;1.10;;;;;;;-141.59;100.00;61776.25;5083531;28;20203;-81
2023/03/09 01:01:15;;;;;;;1.10;1.00;;;;;;;-141.59;100.00;61776.25;5086668;28;20197;-81
2023/03/09 01:03:42;;;;;;;6.33;1.07;;;;;;;-141.59;100.00;61776.25;5083027;28;20200;-81
2023/03/09 01:06:10;;;;;;;1.10;1.00;;;;;;;-141.59;100.00;61776.25;5082226;28;20197;-82
2023/03/09 01:08:37;;;;;;;1.20;1.00;;;;;;;-141.59;100.00;61776.25;5080303;28;20236;-83
2023/03/09 01:11:08;;;;;;;0.90;0.90;;;;;;;-141.59;100.00;61776.25;5099981;28;20196;-83
2023/03/09 01:13:36;;;;;;;1.17;1.00;;;;;;;-141.59;100.00;61776.25;5087542;27;20225;-82
2023/03/09 01:16:04;;;;;;;1.50;1.20;;;;;;;-141.59;100.00;61776.25;5090617;28;20201;-83
2023/03/09 01:18:31;;;;;;;1.43;1.00;;;;;;;-141.59;100.00;61776.25;5083316;28;20256;-84
2023/03/09 01:21:00;;;;;;;1.30;0.90;;;;;;;-141.59;100.00;61776.25;5087554;28;20192;-84
2023/03/09 01:23:27;;;;;;;0.87;0.87;;;;;;;-141.59;100.00;61776.25;5089235;28;20227;-84
2023/03/09 01:25:54;;;;;;;1.17;1.00;;;;;;;-141.59;100.00;61776.25;5077232;28;20213;-81
2023/03/09 01:28:23;;;;;;;1.20;1.07;;;;;;;-141.59;100.00;61776.25;5083074;28;20201;-82
2023/03/09 01:30:49;;;;;;;0.93;0.93;;;;;;;-141.59;100.00;61776.25;5089797;28;20193;-80
2023/03/09 01:33:17;;;;;;;1.00;0.90;;;;;;;-141.59;100.00;61776.25;5087224;28;20204;-81
2023/03/09 01:35:44;;;;;;;0.97;0.97;;;;;;;-141.59;100.00;61776.25;5080280;28;20218;-81
2023/03/09 01:38:11;;;;;;;1.10;1.00;;;;;;;-141.59;100.00;61776.25;5103498;28;20231;-80
2023/03/09 01:40:38;;;;;;;0.97;0.90;;;;;;;-141.59;100.00;61776.25;5090347;28;20205;-81
2023/03/09 01:43:34;;;;;;;1.63;1.10;;;;;;;-141.59;100.00;61776.25;5078800;28;20196;-81
2023/03/09 01:46:50;;;;;;;0.80;0.80;;;;;;;-141.59;100.00;61776.25;5088016;28;20221;-80
2023/03/09 01:49:37;;;;;;;0.80;0.80;;;;;;;-141.59;100.00;61776.25;5041136;28;20264;-82
2023/03/09 01:52:10;;;;;;;1.10;0.80;;;;;;;-141.59;100.00;61776.25;5074766;28;20220;-84
2023/03/09 01:54:42;;;;;;;1.03;0.90;;;;;;;-141.59;100.00;61776.25;5077071;28;20213;-82
2023/03/09 01:57:15;;;;;;;1.10;1.00;;;;;;;-141.59;100.00;61776.25;5071519;28;20201;-83
2023/03/09 01:59:45;;;;;;;0.80;0.80;;;;;;;-141.59;100.00;61776.25;5058100;28;20205;-83
2023/03/09 02:02:14;;;;;;;2.57;1.00;;;;;;;-141.59;100.00;61776.25;5068095;28;20198;-82
2023/03/09 02:04:45;;;;;;;1.10;1.00;;;;;;;-141.59;100.00;61776.25;5062467;28;20225;-82
2023/03/09 02:07:16;;;;;;;1.40;1.00;;;;;;;-141.59;100.00;61776.25;5070976;28;20205;-82
2023/03/09 02:09:50;;;;;;;0.90;0.90;;;;;;;-141.59;100.00;61776.25;5066622;28;20232;-82
2023/03/09 02:12:24;;;;;;;1.00;0.90;;;;;;;-141.59;100.00;61776.25;5061469;28;20209;-83
2023/03/09 02:14:53;;;;;;;0.97;0.93;;;;;;;-141.59;100.00;61776.25;5067634;28;20221;-81
2023/03/09 02:17:20;;;;;;;1.47;0.90;;;;;;;-141.59;100.00;61776.25;5057629;28;20327;-81
2023/03/09 02:20:04;;;;;;;1.00;0.90;;;;;;;-141.59;100.00;61776.25;5067554;28;20209;-81
2023/03/09 02:22:32;;;;;;;0.90;0.90;;;;;;;-141.59;100.00;61776.25;5057777;28;20213;-81
2023/03/09 02:25:08;;;;;;;1.33;1.00;;;;;;;-141.59;100.00;61776.25;5055558;28;20220;-81
2023/03/09 02:27:38;;;;;;;0.90;0.90;;;;;;;-141.59;100.00;61776.25;5056721;28;20292;-81
2023/03/09 02:30:08;;;;;;;0.80;0.80;;;;;;;-141.59;100.00;61776.25;5064282;28;20228;-80
2023/03/09 02:32:35;;;;;;;1.03;0.93;;;;;;;-141.59;100.00;61776.25;5058631;28;20444;-81
2023/03/09 02:35:09;;;;;;;0.77;0.77;;;;;;;-141.59;100.00;61776.25;5060276;28;20201;-80
2023/03/09 02:37:40;;;;;;;0.90;0.90;;;;;;;-141.59;100.00;61776.25;5063898;28;20204;-81
2023/03/09 02:40:17;;;;;;;0.80;0.80;;;;;;;-141.59;100.00;61776.25;5057381;28;20291;-81
2023/03/09 02:42:48;;;;;;;0.90;0.80;;;;;;;-141.59;100.00;61776.25;5071221;28;20330;-80
2023/03/09 02:45:18;;;;;;;0.80;0.80;;;;;;;-141.59;100.00;61776.25;5079264;28;20309;-79
2023/03/09 02:47:46;;;;;;;0.80;0.80;;;;;;;-141.59;100.00;61776.25;5071753;28;20227;-80
2023/03/09 02:50:15;;;;;;;0.70;0.70;;;;;;;-141.59;100.00;61776.25;5080717;28;20224;-82
2023/03/09 02:52:42;;;;;;;1.17;0.87;;;;;;;-141.59;100.00;61776.25;5077885;28;20280;-82
2023/03/09 02:55:09;;;;;;;0.80;0.80;;;;;;;-141.59;100.00;61776.25;5076091;28;20201;-81
2023/03/09 02:57:37;;;;;;;0.90;0.90;;;;;;;-141.59;100.00;61776.25;5076188;28;20258;-82
2023/03/09 03:00:08;;;;;;;1.43;1.07;;;;;;;-141.59;100.00;61776.25;5076922;28;20202;-82
2023/03/09 03:02:36;;;;;;;1.23;1.10;;;;;;;-141.59;100.00;61776.25;5095676;28;20200;-82
2023/03/09 03:05:03;;;;;;;2.20;0.90;;;;;;;-141.59;100.00;61776.25;5080660;28;20216;-83
2023/03/09 03:07:31;;;;;;;1.20;1.00;;;;;;;-141.59;100.00;61776.25;5080576;28;20209;-83
2023/03/09 03:09:58;;;;;;;1.53;1.10;;;;;;;-141.59;100.00;61776.25;5076304;28;20200;-83
2023/03/09 03:12:25;;;;;;;1.47;1.07;;;;;;;-141.59;100.00;61776.25;5085501;28;20209;-83
2023/03/09 03:14:52;;;;;;;1.60;1.03;;;;;;;-141.59;100.00;61776.25;5082187;28;20221;-82
2023/03/09 03:17:21;;;;;;;2.97;1.50;;;;;;;-141.59;100.00;61776.25;5086236;28;20226;-82
2023/03/09 03:19:49;;;;;;;3.30;1.50;;;;;;;-141.59;100.00;61776.25;5078681;28;20200;-82
2023/03/09 03:22:16;;;;;;;1.50;1.10;;;;;;;-141.59;100.00;61776.25;5087652;28;20212;-82
2023/03/09 03:24:45;;;;;;;1.27;1.17;;;;;;;-141.59;100.00;61776.25;5083324;28;20223;-83
2023/03/09 03:27:12;;;;;;;1.47;1.10;;;;;;;-141.59;100.00;61776.25;5084226;28;20189;-82
2023/03/09 03:29:39;;;;;;;1.13;1.07;;;;;;;-141.59;100.00;61776.25;5091293;28;20203;-81
2023/03/09 03:32:07;;;;;;;1.27;1.10;;;;;;;-141.59;100.00;61776.25;5080835;28;20200;-81
2023/03/09 03:34:36;;;;;;;1.10;1.00;;;;;;;-141.59;100.00;61776.25;5081761;28;20220;-81
2023/03/09 03:37:04;;;;;;;1.20;1.10;;;;;;;-141.59;100.00;61776.25;5077684;28;20227;-82
2023/03/09 03:39:34;;;;;;;2.47;1.07;;;;;;;-141.59;100.00;61776.25;5083394;28;20192;-82
2023/03/09 03:42:03;;;;;;;1.33;1.03;;;;;;;-141.59;100.00;61776.25;5088868;28;20209;-82
2023/03/09 03:44:30;;;;;;;1.37;1.13;;;;;;;-141.59;100.00;61776.25;5089299;28;20227;-81
2023/03/09 03:46:58;;;;;;;3.17;2.00;;;;;;;-141.59;100.00;61776.25;5086860;28;20236;-81
2023/03/09 03:49:27;;;;;;;1.80;1.20;;;;;;;-141.59;100.00;61776.25;5079896;28;20209;-83
2023/03/09 03:51:57;;;;;;;2.07;1.13;;;;;;;-141.59;100.00;61776.25;5080003;28;20201;-83
2023/03/09 03:54:25;;;;;;;2.37;1.00;;;;;;;-141.59;100.00;61776.25;5082275;28;20209;-82
2023/03/09 03:56:52;;;;;;;1.30;1.20;;;;;;;-141.59;100.00;61776.25;5080425;28;20254;-82
2023/03/09 03:59:20;;;;;;;1.27;1.00;;;;;;;-141.59;100.00;61776.25;5079314;28;20284;-81
2023/03/09 04:01:47;;;;;;;1.20;1.10;;;;;;;-141.59;100.00;61776.25;5090172;28;20262;-81
2023/03/09 04:04:14;;;;;;;1.13;1.03;;;;;;;-141.59;100.00;61776.25;5090622;28;20201;-83
2023/03/09 04:06:48;;;;;;;0.97;0.90;;;;;;;-141.59;100.00;61776.25;5076620;28;20273;-82
2023/03/09 04:09:18;;;;;;;1.40;1.00;;;;;;;-141.59;100.00;61776.25;5083190;28;20196;-82
2023/03/09 04:11:45;;;;;;;1.37;1.10;;;;;;;-141.59;100.00;61776.25;5078537;28;20203;-82
2023/03/09 04:14:13;;;;;;;0.87;0.83;;;;;;;-141.59;100.00;61776.25;5084259;28;20227;-83
2023/03/09 04:16:40;;;;;;;0.80;0.80;;;;;;;-141.59;100.00;61776.25;5085252;28;20204;-82
2023/03/09 04:19:07;;;;;;;2.07;0.90;;;;;;;-141.59;100.00;61776.25;5087502;28;20208;-81
2023/03/09 04:21:37;;;;;;;0.80;0.80;;;;;;;-141.59;100.00;61776.25;5089942;28;20200;-82
2023/03/09 04:24:04;;;;;;;1.17;1.00;;;;;;;-141.59;100.00;61776.25;5084210;28;20208;-82
2023/03/09 04:26:34;;;;;;;2.20;1.03;;;;;;;-141.59;100.00;61776.25;5084278;28;20273;-81
2023/03/09 04:29:07;;;;;;;1.00;0.90;;;;;;;-141.59;100.00;61776.25;5073838;28;20219;-82
2023/03/09 04:31:34;;;;;;;1.00;0.90;;;;;;;-141.59;100.00;61776.25;5077333;28;20204;-82
2023/03/09 04:34:02;;;;;;;0.80;0.80;;;;;;;-141.59;100.00;61776.25;5076125;28;20292;-82
2023/03/09 04:36:30;;;;;;;2.23;1.40;;;;;;;-141.59;100.00;61776.25;5088369;28;20223;-81
2023/03/09 04:38:58;;;;;;;1.77;1.20;;;;;;;-141.59;100.00;61776.25;5085691;28;20219;-81
2023/03/09 04:41:28;;;;;;;1.10;1.00;;;;;;;-141.59;100.00;61776.25;5079553;28;20201;-81
2023/03/09 04:44:00;;;;;;;1.57;1.13;;;;;;;-141.59;100.00;61776.25;5078993;28;20281;-82
2023/03/09 04:46:27;;;;;;;4.73;2.53;;;;;;;-141.59;100.00;61776.25;5082105;28;20285;-82
2023/03/09 04:48:58;;;;;;;1.60;1.10;;;;;;;-141.59;100.00;61776.25;5083546;28;20318;-83
2023/03/09 04:51:26;;;;;;;4.47;2.80;;;;;;;-141.59;100.00;61776.25;5079790;28;20208;-83
2023/03/09 04:53:55;;;;;;;3.53;1.17;;;;;;;-141.59;100.00;61776.25;5074238;28;20204;-83
2023/03/09 04:56:25;;;;;;;1.00;0.90;;;;;;;-141.59;100.00;61776.25;5089153;28;20200;-83
2023/03/09 04:58:57;;;;;;;1.60;1.13;;;;;;;-141.59;100.00;61776.25;5090322;28;20197;-83
2023/03/09 05:01:28;;;;;;;1.37;1.00;;;;;;;-141.59;100.00;61776.25;5077623;28;20207;-83
2023/03/09 05:03:57;;;;;;;3.90;1.07;;;;;;;-141.59;100.00;61776.25;5084371;28;20211;-82
2023/03/09 05:06:25;;;;;;;0.80;0.80;;;;;;;-141.59;100.00;61776.25;5076975;28;20288;-82
2023/03/09 05:08:54;;;;;;;1.00;0.90;;;;;;;-141.59;100.00;61776.25;5084480;28;20230;-83
2023/03/09 05:11:21;;;;;;;0.93;0.80;;;;;;;-141.59;100.00;61776.25;5083241;28;20201;-82
2023/03/09 05:13:49;;;;;;;1.47;1.30;;;;;;;-141.59;100.00;61776.25;5082333;28;20212;-81
2023/03/09 05:16:19;;;;;;;5.87;3.87;;;;;;;-141.59;100.00;61776.25;5080220;28;20196;-80
2023/03/09 05:18:51;;;;;;;3.50;2.20;;;;;;;-141.59;100.00;61776.25;5082342;28;20201;-81
2023/03/09 05:21:21;;;;;;;2.30;1.63;;;;;;;-141.59;100.00;61776.25;5076577;28;20254;-81
2023/03/09 05:23:49;;;;;;;1.67;1.53;;;;;;;-141.59;100.00;61776.25;5078017;28;20225;-81
2023/03/09 05:26:17;;;;;;;1.93;1.60;;;;;;;-141.59;100.00;61776.25;5083788;28;20221;-81
2023/03/09 05:28:46;;;;;;;3.20;1.53;;;;;;;-141.59;100.00;61776.25;5073889;28;20200;-80
2023/03/09 05:31:15;;;;;;;1.77;1.40;;;;;;;-141.59;100.00;61776.25;5080521;28;20193;-80
2023/03/09 05:33:45;;;;;;;1.50;1.40;;;;;;;-141.59;100.00;61776.25;5087406;28;20199;-81
2023/03/09 05:36:18;;;;;;;1.77;1.40;;;;;;;-141.59;100.00;61776.25;5082428;28;20250;-81
2023/03/09 05:38:46;;;;;;;2.83;1.60;;;;;;;-141.59;100.00;61776.25;5079872;28;20205;-81
2023/03/09 05:41:14;;;;;;;1.40;1.30;;;;;;;-141.59;100.00;61776.25;5079210;28;20246;-81
2023/03/09 05:43:42;;;;;;;3.10;2.10;;;;;;;-141.59;100.00;61776.25;5092257;28;20284;-81
2023/03/09 05:46:11;;;;;;;1.60;1.50;;;;;;;-141.59;100.00;61776.25;5092915;28;20212;-81
2023/03/09 05:48:39;;;;;;;1.53;1.20;;;;;;;-141.59;100.00;61776.25;5088091;28;20259;-82
2023/03/09 05:51:07;;;;;;;1.47;1.30;;;;;;;-141.59;100.00;61776.25;5093301;28;20298;-82
2023/03/09 05:53:38;;;;;;;2.43;1.20;;;;;;;-141.59;100.00;61776.25;5084737;28;20228;-83
2023/03/09 05:56:07;;;;;;;1.97;1.30;;;;;;;-141.59;100.00;61776.25;5077930;28;20208;-82
2023/03/09 05:58:35;;;;;;;2.30;1.50;;;;;;;-141.59;100.00;61776.25;5076763;28;20275;-81
2023/03/09 06:01:03;;;;;;;5.70;1.60;;;;;;;-141.59;100.00;61776.25;5078841;28;20200;-81
2023/03/09 06:03:32;;;;;;;3.10;1.77;;;;;;;-141.59;100.00;61776.25;5086023;28;20299;-81
2023/03/09 06:06:04;;;;;;;2.37;1.70;;;;;;;-141.59;100.00;61776.25;5084181;28;20223;-81
2023/03/09 06:08:35;;;;;;;2.37;1.40;;;;;;;-141.59;100.00;61776.25;5088049;28;20224;-81
2023/03/09 06:11:09;;;;;;;1.97;1.80;;;;;;;-141.59;100.00;61776.25;5085371;28;20274;-81
2023/03/09 06:13:37;;;;;;;3.17;2.03;;;;;;;-141.59;100.00;61776.25;5078093;28;20319;-81
2023/03/09 06:16:05;;;;;;;4.33;2.43;;;;;;;-141.59;100.00;61776.25;5089095;28;20192;-82
2023/03/09 06:18:32;;;;;;;4.23;2.50;;;;;;;-141.59;100.00;61776.25;5091908;28;20236;-82
2023/03/09 06:21:02;;;;;;;2.73;2.30;;;;;;;-141.59;100.00;61776.25;5081905;28;20204;-82
2023/03/09 06:23:29;;;;;;;3.33;2.63;;;;;;;-141.59;100.00;61776.25;5102424;28;20199;-82
2023/03/09 06:25:59;;;;;;;2.13;1.67;;;;;;;-141.59;100.00;61776.25;5085613;28;20303;-83
2023/03/09 06:28:27;;;;;;;2.33;1.47;;;;;;;-141.59;100.00;61776.25;5099115;28;20201;-83
2023/03/09 06:30:54;;;;;;;1.50;1.40;;;;;;;-141.59;100.00;61776.25;5079510;28;20211;-82
2023/03/09 06:33:21;;;;;;;3.53;1.57;;;;;;;-141.59;100.00;61776.25;5078216;28;20207;-82
2023/03/09 06:35:55;;;;;;;13.03;8.00;;;;;;;-141.59;100.00;61776.25;5083367;28;20197;-83
2023/03/09 06:38:24;;;;;;;9.63;5.63;;;;;;;-141.59;100.00;61776.25;5080467;28;20212;-84
2023/03/09 06:40:54;;;;;;;4.03;3.27;;;;;;;-141.59;100.00;61776.25;5077965;28;20204;-84
2023/03/09 06:43:23;;;;;;;2.60;1.50;;;;;;;-141.59;100.00;61776.25;5085975;28;20189;-86
2023/03/09 06:45:51;;;;;;;2.23;1.57;;;;;;;-141.59;100.00;61776.25;5089427;28;20278;-88
2023/03/09 06:48:19;;;;;;;3.33;1.43;;;;;;;-141.59;100.00;61776.25;5079831;28;20232;-86
2023/03/09 06:50:48;;;;;;;2.57;1.50;;;;;;;-141.59;100.00;61776.25;5086795;28;20207;-88
2023/03/09 06:53:16;;;;;;;4.97;1.27;;;;;;;-141.59;100.00;61776.25;5079998;28;20197;-87
2023/03/09 06:55:46;;;;;;;1.60;1.10;;;;;;;-141.59;100.00;61776.25;5081377;28;20263;-86
2023/03/09 06:58:14;;;;;;;3.33;1.20;;;;;;;-141.59;100.00;61776.25;5081111;28;20201;-85
2023/03/09 07:00:46;;;;;;;2.17;1.07;;;;;;;-141.59;100.00;61776.25;5094559;28;20200;-83
2023/03/09 07:03:17;;;;;;;5.07;1.30;;;;;;;-141.59;100.00;61776.25;5078478;28;20201;-82
2023/03/09 07:05:44;;;;;;;2.13;1.50;;;;;;;-141.59;100.00;61776.25;5088850;28;20291;-83
2023/03/09 07:08:11;;;;;;;1.30;1.20;;;;;;;-141.59;100.00;61776.25;5085127;28;20207;-84
2023/03/09 07:10:39;;;;;;;2.63;1.40;;;;;;;-141.59;100.00;61776.25;5084555;28;20208;-83
2023/03/09 07:13:06;;;;;;;2.97;1.40;;;;;;;-141.59;100.00;61776.25;5086477;28;20200;-84
2023/03/09 07:15:34;;;;;;;2.43;1.40;;;;;;;-141.59;100.00;61776.25;5084317;28;20208;-84
2023/03/09 07:18:03;;;;;;;5.63;5.07;;;;;;;-141.59;100.00;61776.25;5090340;28;20277;-84
2023/03/09 07:20:30;;;;;;;3.60;1.90;;;;;;;-141.59;100.00;61776.25;5085510;28;20224;-84
2023/03/09 07:22:57;;;;;;;3.97;1.60;;;;;;;-141.59;100.00;61776.25;5085234;28;20200;-85
2023/03/09 07:25:24;;;;;;;1.97;1.37;;;;;;;-141.59;100.00;61776.25;5083396;28;20200;-84
2023/03/09 07:27:51;;;;;;;4.37;1.77;;;;;;;-141.59;100.00;61776.25;5089051;28;20235;-89
2023/03/09 07:30:19;;;;;;;4.47;3.10;;;;;;;-141.59;100.00;61776.25;5089178;28;20204;-84
2023/03/09 07:32:46;;;;;;;6.20;2.77;;;;;;;-141.59;100.00;61776.25;5083349;28;20218;-83
2023/03/09 07:35:16;;;;;;;2.90;1.70;;;;;;;-141.59;100.00;61776.25;5085367;28;20264;-82
2023/03/09 07:37:43;;;;;;;2.90;1.40;;;;;;;-141.59;100.00;61776.25;5089165;28;20204;-81
2023/03/09 07:40:12;;;;;;;2.83;1.20;;;;;;;-141.59;100.00;61776.25;5091066;28;20257;-83
2023/03/09 07:42:39;;;;;;;2.83;1.20;;;;;;;-141.59;100.00;61776.25;5092795;28;20208;-87
2023/03/09 07:45:17;;;;;;;3.07;1.33;;;;;;;-141.59;100.00;61776.25;5088125;28;20207;-85
2023/03/09 07:47:44;;;;;;;2.70;1.60;;;;;;;-141.59;100.00;61776.25;5100361;28;20236;-85
2023/03/09 07:50:12;;;;;;;4.67;1.40;;;;;;;-141.59;100.00;61776.25;5083602;28;20192;-84
2023/03/09 07:52:41;;;;;;;3.20;1.47;;;;;;;-141.59;100.00;61776.25;5086307;28;20284;-81
2023/03/09 07:55:11;;;;;;;2.63;1.70;;;;;;;-141.59;100.00;61776.25;5093821;28;20272;-90
2023/03/09 07:57:39;;;;;;;3.77;1.40;;;;;;;-141.59;100.00;61776.25;5082083;28;20234;-85
2023/03/09 08:00:12;;;;;;;4.97;1.60;;;;;;;-141.59;100.00;61776.25;5101872;28;20208;-83
2023/03/09 08:02:40;;;;;;;6.67;2.63;;;;;;;-141.59;100.00;61776.25;5085444;28;20219;-82
2023/03/09 08:05:09;;;;;;;3.60;1.80;;;;;;;-141.59;100.00;61776.25;5079785;28;20286;-82
2023/03/09 08:07:36;;;;;;;3.47;2.07;;;;;;;-141.59;100.00;61776.25;5081158;28;20224;-82
2023/03/09 08:10:08;;;;;;;4.43;2.60;;;;;;;-141.59;100.00;61776.25;5088806;28;20203;-82
2023/03/09 08:12:35;;;;;;;4.07;2.17;;;;;;;-141.59;100.00;61776.25;5086938;28;20200;-82
2023/03/09 08:15:02;;;;;;;2.33;1.40;;;;;;;-141.59;100.00;61776.25;5087984;28;20215;-85
2023/03/09 08:17:29;;;;;;;4.47;2.00;;;;;;;-141.59;100.00;61776.25;5085922;28;20232;-87
2023/03/09 08:19:56;;;;;;;4.53;1.67;;;;;;;-141.59;100.00;61776.25;5085242;28;20209;-86
2023/03/09 08:22:23;;;;;;;4.97;2.50;;;;;;;-141.59;100.00;61776.25;5083152;28;20223;-87
2023/03/09 08:24:50;;;;;;;2.13;1.50;;;;;;;-141.59;100.00;61776.25;5087724;28;20199;-82
2023/03/09 08:27:20;;;;;;;1.57;1.43;;;;;;;-141.59;100.00;61776.25;5081337;28;20283;-82
2023/03/09 08:29:47;;;;;;;2.70;1.87;;;;;;;-141.59;100.00;61776.25;5073113;28;20213;-82
2023/03/09 08:32:15;;;;;;;2.73;1.60;;;;;;;-141.59;100.00;61776.25;5080944;28;20251;-83
2023/03/09 08:34:42;;;;;;;1.83;1.30;;;;;;;-141.59;100.00;61776.25;5080191;28;20215;-84
2023/03/09 08:37:09;;;;;;;5.37;1.43;;;;;;;-141.59;100.00;61776.25;5077559;28;20223;-85
2023/03/09 08:39:37;;;;;;;4.33;1.40;;;;;;;-141.59;100.00;61776.25;5079238;28;20193;-84
2023/03/09 08:42:05;;;;;;;3.30;1.40;;;;;;;-141.59;100.00;61776.25;5078947;28;20201;-85
2023/03/09 08:44:34;;;;;;;2.83;1.30;;;;;;;-141.59;100.00;61776.25;5085848;28;20201;-83
2023/03/09 08:47:01;;;;;;;2.17;1.30;;;;;;;-141.59;100.00;61776.25;5081665;28;20237;-85
2023/03/09 08:49:28;;;;;;;1.40;1.20;;;;;;;-141.59;100.00;61776.25;5077067;28;20207;-84
2023/03/09 08:51:55;;;;;;;2.93;1.40;;;;;;;-141.59;100.00;61776.25;5083265;28;20208;-85
2023/03/09 08:54:23;;;;;;;2.60;1.57;;;;;;;-141.59;100.00;61776.25;5095117;28;20201;-84
2023/03/09 08:56:50;;;;;;;2.37;1.30;;;;;;;-141.59;100.00;61776.25;5089516;28;20204;-84
2023/03/09 08:59:18;;;;;;;2.47;1.40;;;;;;;-141.59;100.00;61776.25;5086232;28;20201;-85
2023/03/09 09:01:50;;;;;;;3.33;1.50;;;;;;;-141.59;100.00;61776.25;5080322;28;20204;-85
2023/03/09 09:04:18;;;;;;;1.70;1.20;;;;;;;-141.59;100.00;61776.25;5085952;28;20204;-87
2023/03/09 09:06:45;;;;;;;4.93;2.07;;;;;;;-141.59;100.00;61776.25;5090748;28;20212;-86
2023/03/09 09:09:12;;;;;;;1.83;1.30;;;;;;;-141.59;100.00;61776.25;5090226;28;20281;-85
2023/03/09 09:11:40;;;;;;;2.10;1.47;;;;;;;-141.59;100.00;61776.25;5081411;28;20201;-85
2023/03/09 09:14:07;;;;;;;3.10;1.40;;;;;;;-141.59;100.00;61776.25;5090110;28;20220;-85
2023/03/09 09:16:35;;;;;;;4.73;1.37;;;;;;;-141.59;100.00;61776.25;5095610;28;20257;-85
2023/03/09 09:19:04;;;;;;;5.47;1.80;;;;;;;-141.59;100.00;61776.25;5078857;28;20220;-84
2023/03/09 09:21:31;;;;;;;3.77;1.70;;;;;;;-141.59;100.00;61776.25;5081389;28;20204;-86
2023/03/09 09:23:59;;;;;;;4.07;2.53;;;;;;;-141.59;100.00;61776.25;5085644;28;20205;-84
2023/03/09 09:26:26;;;;;;;8.47;3.63;;;;;;;-141.59;100.00;61776.25;5078984;28;20590;-84
2023/03/09 09:28:53;;;;;;;9.00;3.47;;;;;;;-141.59;100.00;61776.25;5092868;28;20228;-84
2023/03/09 09:31:21;;;;;;;4.73;3.00;;;;;;;-141.59;100.00;61776.25;5088815;28;20208;-82
2023/03/09 09:33:53;;;;;;;3.40;2.10;;;;;;;-141.59;100.00;61776.25;5079224;28;20225;-84
2023/03/09 09:36:22;;;;;;;3.37;2.00;;;;;;;-141.59;100.00;61776.25;5077822;28;20228;-83
2023/03/09 09:38:49;;;;;;;4.10;1.60;;;;;;;-141.59;100.00;61776.25;5079871;27;20200;-84
2023/03/09 09:41:20;;;;;;;3.03;1.60;;;;;;;-141.59;100.00;61776.25;5082825;28;20216;-84
2023/03/09 09:43:51;;;;;;;2.50;1.50;;;;;;;-141.59;100.00;61776.25;5080527;28;20211;-81
2023/03/09 09:46:21;;;;;;;1.97;1.50;;;;;;;-141.59;100.00;61776.25;5081615;28;20228;-85
2023/03/09 09:48:49;;;;;;;3.37;1.30;;;;;;;-141.59;100.00;61776.25;5089110;28;20263;-85
2023/03/09 09:51:39;;;;;;;4.23;1.57;;;;;;;-141.59;100.00;61776.25;5079428;28;20267;-84
2023/03/09 09:54:17;;;;;;;3.40;1.80;;;;;;;-141.59;100.00;61776.25;5088823;28;20200;-85
2023/03/09 09:56:48;;;;;;;3.13;1.50;;;;;;;-141.59;100.00;61776.25;5099511;27;20235;-85
2023/03/09 09:59:22;;;;;;;3.83;1.37;;;;;;;-141.59;100.00;61776.25;5095763;28;20331;-84
2023/03/09 10:01:57;;;;;;;3.50;1.50;;;;;;;-141.59;100.00;61776.25;5090137;28;20200;-85
2023/03/09 10:04:30;;;;;;;3.87;1.33;;;;;;;-141.59;100.00;61776.25;5088895;28;20218;-84
2023/03/09 10:07:05;;;;;;;3.70;1.30;;;;;;;-141.59;100.00;61776.25;5083262;28;20221;-85
2023/03/09 10:09:34;;;;;;;6.43;1.90;;;;;;;-141.59;100.00;61776.25;5086726;28;20234;-85
2023/03/09 10:12:06;;;;;;;3.00;1.40;;;;;;;-141.59;100.00;61776.25;5087577;28;20223;-85
2023/03/09 10:14:38;;;;;;;4.10;1.27;;;;;;;-141.59;100.00;61776.25;5086008;28;20281;-84
2023/03/09 10:17:14;;;;;;;3.00;1.60;;;;;;;-141.59;100.00;61776.25;5077123;28;20192;-86
2023/03/09 10:19:42;;;;;;;1.70;1.37;;;;;;;-141.59;100.00;61776.25;5088385;28;20214;-86
2023/03/09 10:22:19;;;;;;;3.33;1.40;;;;;;;-141.59;100.00;61776.25;5097819;28;20249;-86
2023/03/09 10:24:47;;;;;;;2.90;1.50;;;;;;;-141.59;100.00;61776.25;5079489;28;20204;-85
2023/03/09 10:27:20;;;;;;;3.17;1.40;;;;;;;-141.59;100.00;61776.25;5087961;28;20297;-84
2023/03/09 10:29:54;;;;;;;2.37;1.40;;;;;;;-141.59;100.00;61776.25;5080158;27;20223;-86
2023/03/09 10:32:26;;;;;;;2.03;1.47;;;;;;;-141.59;100.00;61776.25;5098869;28;20283;-85
2023/03/09 10:34:57;;;;;;;2.33;1.20;;;;;;;-141.59;100.00;61776.25;5079807;28;20201;-83
2023/03/09 10:37:33;;;;;;;2.50;1.23;;;;;;;-141.59;100.00;61776.25;5089305;28;20214;-84
2023/03/09 10:40:03;;;;;;;2.00;1.70;;;;;;;-141.59;100.00;61776.25;5087575;28;20215;-85
2023/03/09 10:42:37;;;;;;;1.77;1.60;;;;;;;-141.59;100.00;61776.25;5085471;28;20223;-85
2023/03/09 10:45:16;;;;;;;2.10;1.60;;;;;;;-141.59;100.00;61776.25;5079119;28;20209;-86
2023/03/09 10:48:05;;;;;;;2.20;1.60;;;;;;;-141.59;100.00;61776.25;5075597;28;20235;-86
2023/03/09 10:50:35;;;;;;;5.87;1.50;;;;;;;-141.59;100.00;61776.25;5074409;28;20201;-85
2023/03/09 10:53:29;;;;;;;2.00;1.23;;;;;;;-141.59;100.00;61776.25;5109743;27;20253;-85
2023/03/09 10:56:03;;;;;;;2.03;1.33;;;;;;;-141.59;100.00;61776.25;5086721;28;20230;-85
2023/03/09 10:58:30;;;;;;;2.67;1.37;;;;;;;-141.59;100.00;61776.25;5103746;28;20284;-85
2023/03/09 11:01:01;;;;;;;3.17;1.60;;;;;;;-141.59;100.00;61776.25;5078307;28;20209;-86
2023/03/09 11:03:34;;;;;;;2.30;1.40;;;;;;;-141.59;100.00;61776.25;5076527;28;20223;-84
2023/03/09 11:06:25;;;;;;;2.03;1.40;;;;;;;-141.59;100.00;61776.25;5089119;28;20238;-83
2023/03/09 11:09:07;;;;;;;3.17;1.30;;;;;;;-141.59;100.00;61776.25;5082308;28;20213;-84
2023/03/09 11:11:34;;;;;;;1.60;1.30;;;;;;;-141.59;100.00;61776.25;5096529;28;20200;-84
2023/03/09 11:14:01;;;;;;;3.47;1.40;;;;;;;-141.59;100.00;61776.25;5085832;28;20223;-84
2023/03/09 11:16:34;;;;;;;2.70;1.50;;;;;;;-141.59;100.00;61776.25;5089538;28;20285;-84
2023/03/09 11:19:08;;;;;;;1.23;1.00;;;;;;;-141.59;100.00;61776.25;5078082;27;20208;-84
2023/03/09 11:21:37;;;;;;;3.60;1.27;;;;;;;-141.59;100.00;61776.25;5098004;28;20273;-84